Time;durP1;ratioP1;P1;durP2;ratioP2;P2;SDS_P1;SDS_P2;PMS_P1;PMS_P2;Temp;Humidity;BMP_temperature;BMP_pressure;BME280_temperature;BME280_humidity;BME280_pressure;Samples;Min_cycle;Max_cycle;Signal;HPM_P1;HPM_P2
2023/07/02 00:03:27;;;;;;;2.90;2.10;;;;;;;18.54;72.65;99938.41;15739415;28;20067;-53
2023/07/02 00:11:00;;;;;;;3.22;1.75;;;;;;;18.22;73.56;99936.97;15744482;28;20396;-49
2023/07/02 00:18:34;;;;;;;59.42;3.70;;;;;;;18.21;73.29;99948.91;15727061;28;20361;-49
2023/07/02 00:26:07;;;;;;;3.88;1.98;;;;;;;17.80;74.59;99954.53;15756251;28;20063;-49
2023/07/02 00:33:42;;;;;;;118.70;6.40;;;;;;;18.09;74.08;99956.56;15759173;28;20443;-49
2023/07/02 00:41:15;;;;;;;3.25;2.60;;;;;;;17.91;74.09;99965.38;15744303;28;20064;-47
2023/07/02 00:48:51;;;;;;;4.68;4.15;;;;;;;17.84;74.26;99969.19;15733972;28;20067;-50
2023/07/02 00:56:26;;;;;;;4.20;3.00;;;;;;;17.62;74.63;99973.28;15716954;28;20162;-53
2023/07/02 01:04:02;;;;;;;5.22;3.33;;;;;;;17.72;74.52;99963.25;15728875;28;20501;-47
2023/07/02 01:11:37;;;;;;;4.28;3.85;;;;;;;17.74;73.99;99976.56;15746784;28;20067;-45
2023/07/02 01:19:18;;;;;;;5.00;4.35;;;;;;;17.68;74.23;99973.03;15750024;28;20052;-46
2023/07/02 01:26:56;;;;;;;5.55;4.53;;;;;;;18.02;72.67;99970.47;15749188;28;20051;-52
2023/07/02 01:34:30;;;;;;;5.30;4.80;;;;;;;17.82;72.96;99976.00;15754414;28;20067;-47
2023/07/02 01:42:10;;;;;;;;;;;;;;;17.45;72.90;99974.44;15750896;28;20511;-50
2023/07/02 01:49:43;;;;;;;10.43;7.20;;;;;;;17.85;71.61;99989.81;15719603;28;20299;-48
2023/07/02 01:57:17;;;;;;;7.90;5.60;;;;;;;17.69;71.60;99990.94;15768740;28;20040;-50
2023/07/02 02:04:50;;;;;;;6.80;4.38;;;;;;;17.65;71.14;99979.00;15724973;28;20040;-49
2023/07/02 02:12:28;;;;;;;6.50;4.38;;;;;;;17.43;71.48;99973.88;15735012;28;20131;-47
2023/07/02 02:20:01;;;;;;;6.65;4.10;;;;;;;17.44;71.22;99977.41;15710240;28;20048;-47
2023/07/02 02:27:35;;;;;;;7.25;3.60;;;;;;;17.56;70.51;99994.22;15742354;28;20097;-46
2023/07/02 02:35:09;;;;;;;6.13;3.70;;;;;;;17.54;70.56;99980.91;15733138;28;20053;-50
2023/07/02 02:42:45;;;;;;;5.57;3.97;;;;;;;17.63;71.42;99997.47;15722505;28;20051;-49
2023/07/02 02:50:18;;;;;;;6.00;4.30;;;;;;;17.34;72.21;100005.34;15750804;28;20137;-48
2023/07/02 02:57:53;;;;;;;22.83;7.88;;;;;;;17.03;73.83;100004.56;15758325;28;20392;-53
2023/07/02 03:05:26;;;;;;;5.95;4.43;;;;;;;17.29;72.36;100005.38;15779355;28;20416;-47
2023/07/02 03:13:02;;;;;;;;;;;;;;;17.15;72.42;100009.72;15738858;28;20109;-51
2023/07/02 03:20:38;;;;;;;7.10;4.20;;;;;;;17.11;72.03;100006.72;15744101;28;19924;-47
2023/07/02 03:28:12;;;;;;;7.30;3.97;;;;;;;16.80;72.91;100012.13;15762627;28;20040;-48
2023/07/02 03:35:45;;;;;;;5.68;3.63;;;;;;;17.47;70.02;100007.50;15753409;28;20066;-50
2023/07/02 03:43:19;;;;;;;;;;;;;;;17.26;70.27;100014.88;15763884;28;20040;-49
2023/07/02 03:50:52;;;;;;;5.25;3.33;;;;;;;17.18;70.28;100012.69;15732779;28;20023;-48
2023/07/02 03:58:26;;;;;;;6.78;3.42;;;;;;;17.55;69.00;100025.16;15751510;28;20675;-49
2023/07/02 04:05:59;;;;;;;4.65;3.10;;;;;;;17.32;69.48;100030.06;15746152;28;20049;-53
2023/07/02 04:13:34;;;;;;;5.35;3.38;;;;;;;16.99;70.21;100039.53;15753188;28;20083;-46
2023/07/02 04:21:07;;;;;;;5.35;3.15;;;;;;;17.45;68.91;100050.41;15761441;28;20045;-45
2023/07/02 04:28:41;;;;;;;3.90;3.15;;;;;;;17.40;69.20;100049.59;15737274;28;20446;-49
2023/07/02 04:36:15;;;;;;;4.82;3.17;;;;;;;17.42;69.27;100055.53;15755411;28;20044;-45
2023/07/02 04:43:51;;;;;;;4.90;3.40;;;;;;;17.28;69.68;100055.28;15760620;28;20048;-48
2023/07/02 04:51:23;;;;;;;7.93;3.28;;;;;;;17.45;68.95;100065.88;15742173;28;20284;-49
2023/07/02 04:58:57;;;;;;;7.18;3.20;;;;;;;17.63;68.11;100070.75;15740802;28;20044;-48
2023/07/02 05:06:30;;;;;;;5.88;3.25;;;;;;;17.55;69.11;100082.94;15788447;28;20493;-56
2023/07/02 05:14:05;;;;;;;8.00;3.00;;;;;;;17.85;67.58;100095.69;15728303;28;20412;-53
2023/07/02 05:21:38;;;;;;;4.63;2.97;;;;;;;17.43;67.10;100057.97;15772503;28;20064;-52
2023/07/02 05:29:13;;;;;;;7.38;3.00;;;;;;;17.83;66.33;100103.31;15730643;28;20032;-55
2023/07/02 05:36:46;;;;;;;4.57;2.58;;;;;;;18.15;64.23;100101.34;15713598;28;20049;-50
2023/07/02 05:44:20;;;;;;;4.78;2.50;;;;;;;18.24;63.19;100096.97;15764012;28;20040;-50
2023/07/02 05:51:53;;;;;;;9.70;2.85;;;;;;;17.99;63.95;100111.41;15741856;28;20126;-56
2023/07/02 05:59:27;;;;;;;;;;;;;;;18.17;62.99;100104.59;15765788;28;20040;-50
2023/07/02 06:07:00;;;;;;;4.47;2.50;;;;;;;18.50;61.66;100119.41;15734697;28;19932;-53
2023/07/02 06:14:34;;;;;;;;;;;;;;;18.96;58.56;100105.63;15756444;28;20067;-49
2023/07/02 06:22:07;;;;;;;3.75;2.53;;;;;;;18.74;59.47;100122.31;15751352;28;19920;-48
2023/07/02 06:29:42;;;;;;;5.43;2.78;;;;;;;18.50;59.15;100109.34;15753122;28;20052;-47
2023/07/02 06:37:15;;;;;;;5.43;2.60;;;;;;;18.41;60.51;100107.50;15746602;28;20051;-50
2023/07/02 06:44:49;;;;;;;4.20;2.45;;;;;;;18.99;59.10;100113.25;15748916;28;20644;-54
2023/07/02 06:52:22;;;;;;;5.95;2.58;;;;;;;19.51;57.52;100098.16;15735356;28;20040;-51
2023/07/02 07:00:00;;;;;;;4.35;2.60;;;;;;;19.16;56.68;100091.88;15748003;28;20120;-52
2023/07/02 07:07:33;;;;;;;4.70;2.50;;;;;;;18.55;58.60;100114.75;15727207;28;20044;-52
2023/07/02 07:15:10;;;;;;;5.80;2.63;;;;;;;19.02;58.13;100118.09;15760451;28;20060;-48
2023/07/02 07:22:43;;;;;;;7.00;2.72;;;;;;;19.11;58.31;100121.84;15761291;28;20040;-52
2023/07/02 07:30:22;;;;;;;4.95;2.55;;;;;;;20.70;54.84;100107.56;15741168;28;20064;-51
2023/07/02 07:37:57;;;;;;;5.60;2.97;;;;;;;19.36;54.93;100129.03;15746944;28;20409;-51
2023/07/02 07:45:34;;;;;;;4.45;2.58;;;;;;;18.93;57.17;100136.94;15747126;28;20040;-49
2023/07/02 07:53:07;;;;;;;5.40;2.60;;;;;;;19.19;56.96;100142.22;15746893;28;20158;-49
2023/07/02 08:00:40;;;;;;;;;;;;;;;19.08;58.20;100155.06;15743548;28;20119;-53
2023/07/02 08:08:13;;;;;;;5.20;2.70;;;;;;;19.10;58.64;100161.03;15751258;28;19981;-52
2023/07/02 08:15:48;;;;;;;6.95;3.70;;;;;;;18.20;56.81;100164.63;15738285;28;20112;-51
2023/07/02 08:23:21;;;;;;;9.10;3.85;;;;;;;18.33;55.83;100179.53;15782310;28;20113;-55
2023/07/02 08:30:55;;;;;;;8.07;4.50;;;;;;;17.42;59.80;100205.56;15727574;28;20048;-49
2023/07/02 08:38:28;;;;;;;11.57;4.95;;;;;;;17.76;63.19;100164.38;15780557;28;20060;-51
2023/07/02 08:46:02;;;;;;;8.45;4.70;;;;;;;17.49;60.04;100173.59;15740844;28;20045;-53
2023/07/02 08:53:36;;;;;;;563.22;26.30;;;;;;;17.45;60.22;100180.63;15739568;28;20389;-51
2023/07/02 09:01:12;;;;;;;9.60;4.45;;;;;;;17.79;59.07;100191.81;15711007;28;20048;-54
2023/07/02 09:08:45;;;;;;;8.35;4.07;;;;;;;18.22;59.19;100191.50;15728382;28;20044;-57
2023/07/02 09:16:23;;;;;;;;;;;;;;;18.44;58.43;100196.63;15749870;28;20044;-55
2023/07/02 09:23:56;;;;;;;6.78;3.90;;;;;;;18.14;59.52;100190.16;15733676;28;19992;-53
2023/07/02 09:31:30;;;;;;;7.75;3.80;;;;;;;18.61;60.71;100203.38;15740187;28;20105;-55
2023/07/02 09:39:04;;;;;;;8.10;4.07;;;;;;;18.51;59.88;100203.41;15779858;28;20044;-50
2023/07/02 09:46:50;;;;;;;12.20;5.00;;;;;;;19.12;58.32;100202.38;15781759;28;20157;-52
2023/07/02 09:54:24;;;;;;;9.40;4.43;;;;;;;19.26;56.16;100192.50;15777105;28;20044;-54
2023/07/02 10:01:59;;;;;;;;;;;;;;;20.18;51.31;100185.53;15738277;28;20055;-54
2023/07/02 10:09:39;;;;;;;12.90;5.45;;;;;;;20.74;51.65;100180.31;15754261;28;20446;-53
2023/07/02 10:17:24;;;;;;;13.77;4.97;;;;;;;21.22;50.05;100180.25;15755384;28;20551;-50
2023/07/02 10:24:59;;;;;;;13.40;6.03;;;;;;;20.30;51.69;100177.81;15767169;28;20063;-49
2023/07/02 10:32:34;;;;;;;11.20;5.63;;;;;;;21.62;48.84;100183.50;15761523;28;20056;-53
2023/07/02 10:40:09;;;;;;;9.68;4.97;;;;;;;22.01;49.67;100174.09;15744375;28;20629;-51
2023/07/02 10:47:43;;;;;;;14.63;6.00;;;;;;;23.27;48.01;100167.25;15808156;22;20130;-77
2023/07/02 10:55:18;;;;;;;12.68;5.38;;;;;;;22.09;47.67;100174.22;15827603;28;20502;-75
2023/07/02 11:02:54;;;;;;;16.48;6.05;;;;;;;20.94;50.11;100187.44;15827824;28;20047;-76
2023/07/02 11:10:29;;;;;;;11.95;6.50;;;;;;;21.55;42.44;100177.63;15842468;28;20147;-75
2023/07/02 11:18:11;;;;;;;15.80;6.07;;;;;;;21.87;42.12;100204.16;15844316;28;20044;-77
2023/07/02 11:25:54;;;;;;;18.27;6.70;;;;;;;21.94;42.92;100182.69;15836264;27;20533;-76
2023/07/02 11:33:35;;;;;;;12.52;6.43;;;;;;;21.95;42.63;100187.03;15839313;28;20043;-76
2023/07/02 11:41:08;;;;;;;12.47;6.17;;;;;;;22.54;41.47;100196.38;15832983;28;20376;-78
2023/07/02 11:48:42;;;;;;;15.27;6.22;;;;;;;22.79;38.81;100200.53;15807350;27;20095;-72
2023/07/02 11:56:15;;;;;;;15.20;5.75;;;;;;;22.88;38.03;100195.16;15854534;28;20416;-77
2023/07/02 12:03:50;;;;;;;14.00;6.35;;;;;;;22.85;37.26;100196.59;15840240;27;20063;-76
2023/07/02 12:11:23;;;;;;;13.38;6.03;;;;;;;23.67;34.86;100203.84;15818288;27;20472;-75
2023/07/02 12:18:57;;;;;;;13.00;6.60;;;;;;;22.82;36.11;100212.81;15825109;28;20101;-74
2023/07/02 12:26:35;;;;;;;17.52;6.88;;;;;;;23.37;34.18;100212.75;15823371;28;20063;-74
2023/07/02 12:34:09;;;;;;;14.85;5.97;;;;;;;23.41;31.76;100206.34;15821189;28;20048;-73
2023/07/02 12:41:42;;;;;;;15.63;6.47;;;;;;;23.46;33.84;100199.94;15823549;27;20036;-71
2023/07/02 12:49:17;;;;;;;14.38;6.88;;;;;;;24.81;33.62;100217.09;15825303;27;20479;-74
2023/07/02 12:56:49;;;;;;;53.63;8.20;;;;;;;23.62;31.89;100217.63;15825272;28;20049;-72
2023/07/02 13:04:26;;;;;;;17.48;6.75;;;;;;;23.39;33.80;100240.63;15818310;28;20044;-72
2023/07/02 13:12:00;;;;;;;13.95;6.32;;;;;;;22.54;36.85;100262.03;15803985;28;20135;-72
2023/07/02 13:19:35;;;;;;;14.35;6.57;;;;;;;22.96;35.35;100245.69;15813511;28;20091;-73
2023/07/02 13:27:13;;;;;;;46.33;6.70;;;;;;;24.06;34.66;100248.13;15825423;28;20040;-72
2023/07/02 13:34:47;;;;;;;17.05;6.05;;;;;;;23.27;33.13;100254.03;15809718;28;20147;-72
2023/07/02 13:42:20;;;;;;;17.90;6.32;;;;;;;23.05;33.59;100254.78;15822601;28;20157;-71
2023/07/02 13:49:55;;;;;;;15.52;6.15;;;;;;;24.33;33.58;100258.94;15818852;28;20047;-72
2023/07/02 13:57:31;;;;;;;17.10;6.70;;;;;;;23.67;35.78;100266.88;15827491;28;20213;-74
2023/07/02 14:05:06;;;;;;;15.07;6.50;;;;;;;23.37;33.07;100259.31;15810981;28;20047;-73
2023/07/02 14:12:39;;;;;;;13.45;6.40;;;;;;;22.63;34.47;100284.84;15818306;28;20046;-76
2023/07/02 14:20:14;;;;;;;17.88;6.20;;;;;;;23.11;34.18;100276.28;15834360;28;20415;-75
2023/07/02 14:27:47;;;;;;;12.27;6.07;;;;;;;23.38;34.04;100289.13;15837920;28;20043;-74
2023/07/02 14:35:25;;;;;;;16.35;6.85;;;;;;;22.50;35.23;100303.97;15831033;28;20035;-79
2023/07/02 14:42:58;;;;;;;15.02;6.28;;;;;;;22.69;33.69;100292.97;15836390;27;20050;-75
2023/07/02 14:50:32;;;;;;;13.43;5.63;;;;;;;22.58;34.83;100295.88;15816665;28;20511;-74
2023/07/02 14:58:05;;;;;;;18.27;6.30;;;;;;;22.01;32.29;100311.59;15830571;28;20062;-73
2023/07/02 15:05:40;;;;;;;12.07;5.43;;;;;;;22.50;32.98;100329.41;15828047;27;20107;-75
2023/07/02 15:13:13;;;;;;;11.20;5.68;;;;;;;22.64;33.30;100304.81;15833685;28;20534;-73
2023/07/02 15:20:54;;;;;;;12.68;5.00;;;;;;;22.94;33.75;100319.06;15835027;28;20096;-76
2023/07/02 15:28:28;;;;;;;12.57;5.47;;;;;;;22.52;34.35;100309.94;15827267;28;20063;-73
2023/07/02 15:36:05;;;;;;;12.48;5.20;;;;;;;21.90;33.61;100310.09;15832836;28;20048;-74
2023/07/02 15:43:38;;;;;;;11.40;5.30;;;;;;;22.20;33.73;100317.06;15823163;28;20206;-75
2023/07/02 15:51:13;;;;;;;9.55;5.18;;;;;;;22.05;34.64;100325.44;15836516;27;20040;-74
2023/07/02 15:58:47;;;;;;;17.83;6.18;;;;;;;22.35;35.34;100326.94;15832266;28;20514;-75
2023/07/02 16:06:23;;;;;;;16.42;10.32;;;;;;;22.15;34.71;100325.34;15822600;28;20066;-74
2023/07/02 16:13:57;;;;;;;20.58;10.63;;;;;;;21.89;33.95;100327.59;15829319;28;20048;-76
2023/07/02 16:21:33;;;;;;;12.55;5.95;;;;;;;21.88;33.82;100340.47;15837563;28;20044;-74
2023/07/02 16:29:06;;;;;;;18.33;8.98;;;;;;;21.78;34.54;100337.88;15829332;28;20067;-75
2023/07/02 16:36:40;;;;;;;22.00;11.43;;;;;;;21.86;34.64;100337.19;15847035;22;20311;-50
2023/07/02 16:44:15;;;;;;;358.70;319.50;;;;;;;21.52;35.45;100344.78;15762775;28;20040;-55
2023/07/02 16:51:49;;;;;;;16.98;7.63;;;;;;;21.54;34.65;100348.84;15752636;22;20044;-51
2023/07/02 16:59:25;;;;;;;11.00;5.45;;;;;;;21.93;36.49;100352.44;15737666;28;20386;-57
2023/07/02 17:07:01;;;;;;;23.85;7.18;;;;;;;21.58;35.74;100349.88;15741784;28;20101;-54
2023/07/02 17:14:36;;;;;;;13.68;5.70;;;;;;;21.44;35.37;100359.88;15742660;28;20048;-56
2023/07/02 17:22:12;;;;;;;15.27;5.07;;;;;;;21.57;35.87;100363.84;15723151;28;20497;-50
2023/07/02 17:29:50;;;;;;;14.57;5.25;;;;;;;21.73;36.28;100359.81;15715975;28;20693;-51
2023/07/02 17:37:25;;;;;;;13.20;5.40;;;;;;;21.52;36.60;100363.91;15708810;28;20052;-56
2023/07/02 17:44:59;;;;;;;12.15;4.97;;;;;;;20.89;36.33;100375.78;15737227;28;20065;-55
2023/07/02 17:52:33;;;;;;;12.75;5.18;;;;;;;21.02;36.53;100375.06;15710222;28;20092;-48
2023/07/02 18:00:08;;;;;;;11.75;5.03;;;;;;;21.25;36.32;100375.38;15733163;28;20029;-57
2023/07/02 18:07:43;;;;;;;12.70;5.05;;;;;;;20.97;36.92;100374.31;15724624;28;20120;-52
2023/07/02 18:15:16;;;;;;;10.07;5.07;;;;;;;20.55;37.56;100340.34;15752619;28;20459;-57
2023/07/02 18:22:50;;;;;;;12.95;5.38;;;;;;;20.59;38.03;100365.94;15718208;28;20044;-53
2023/07/02 18:30:23;;;;;;;12.82;4.80;;;;;;;20.35;37.71;100379.47;15717956;28;20075;-57
2023/07/02 18:37:57;;;;;;;;;;;;;;;20.33;38.22;100390.66;15728306;28;20049;-54
2023/07/02 18:45:30;;;;;;;12.15;5.60;;;;;;;20.33;38.64;100387.94;15712743;28;19924;-59
2023/07/02 18:53:04;;;;;;;43.05;9.25;;;;;;;20.23;39.19;100392.63;15725030;28;20105;-56
2023/07/02 19:00:38;;;;;;;83.95;7.55;;;;;;;20.39;39.43;100402.34;15755894;28;20063;-54
2023/07/02 19:08:14;;;;;;;17.63;5.80;;;;;;;20.18;39.90;100400.84;15745648;28;20382;-58
2023/07/02 19:15:47;;;;;;;16.95;8.27;;;;;;;20.25;40.24;100401.34;15752293;28;20377;-58
2023/07/02 19:23:22;;;;;;;21.75;8.50;;;;;;;20.62;40.98;100411.72;15736949;28;20079;-58
2023/07/02 19:30:56;;;;;;;11.45;5.38;;;;;;;20.19;41.73;100416.06;15758078;28;20153;-55
2023/07/02 19:38:31;;;;;;;13.30;5.72;;;;;;;19.68;42.95;100417.19;15753017;28;20401;-59
2023/07/02 19:46:04;;;;;;;13.82;5.75;;;;;;;19.48;43.84;100414.47;15700447;28;20049;-59
2023/07/02 19:53:38;;;;;;;12.98;5.85;;;;;;;19.05;45.00;100427.66;15697102;28;20514;-58
2023/07/02 20:01:13;;;;;;;11.48;5.80;;;;;;;18.90;43.54;100439.38;15720485;28;20067;-59
2023/07/02 20:08:48;;;;;;;65.10;10.27;;;;;;;18.92;44.17;100445.34;15727534;28;20036;-58
2023/07/02 20:16:21;;;;;;;83.55;23.05;;;;;;;18.76;45.16;100458.13;15718548;28;20048;-62
2023/07/02 20:23:55;;;;;;;10.98;5.22;;;;;;;18.46;44.71;100448.00;15710368;28;20049;-58
2023/07/02 20:31:27;;;;;;;12.32;5.43;;;;;;;18.87;44.22;100453.50;15718109;28;20040;-55
2023/07/02 20:39:01;;;;;;;11.02;5.15;;;;;;;18.82;45.41;100458.94;15707316;28;20068;-57
2023/07/02 20:46:34;;;;;;;15.27;7.93;;;;;;;17.93;46.07;100458.19;15728644;28;20078;-60
2023/07/02 20:54:09;;;;;;;8.95;5.10;;;;;;;17.49;46.43;100460.41;15764200;28;20048;-59
2023/07/02 21:01:42;;;;;;;10.00;4.82;;;;;;;17.44;46.77;100457.63;15719831;28;20511;-61
2023/07/02 21:09:16;;;;;;;13.48;5.43;;;;;;;17.27;46.11;100466.78;15752139;28;20453;-55
2023/07/02 21:16:49;;;;;;;12.98;5.78;;;;;;;17.90;47.20;100469.56;15756855;28;20547;-59
2023/07/02 21:24:23;;;;;;;;;;;;;;;17.72;47.52;100472.72;15771840;28;20049;-58
2023/07/02 21:31:56;;;;;;;10.02;5.18;;;;;;;17.65;47.80;100478.38;15741584;28;19930;-59
2023/07/02 21:39:30;;;;;;;12.68;5.35;;;;;;;17.56;48.08;100483.50;15697169;28;20045;-59
2023/07/02 21:47:03;;;;;;;13.60;5.15;;;;;;;17.40;48.04;100489.94;15723753;28;20064;-59
2023/07/02 21:54:37;;;;;;;9.20;4.72;;;;;;;17.29;47.45;100486.31;15759002;28;20477;-57
2023/07/02 22:02:11;;;;;;;11.07;4.90;;;;;;;17.22;47.65;100482.19;15760293;28;20403;-53
2023/07/02 22:09:46;;;;;;;13.85;5.75;;;;;;;17.05;48.66;100494.00;15762497;28;20064;-52
2023/07/02 22:17:19;;;;;;;324.38;35.53;;;;;;;16.92;49.33;100499.03;15745558;28;20147;-55
2023/07/02 22:24:53;;;;;;;16.52;10.43;;;;;;;16.55;50.73;100500.59;15748887;28;20036;-53
2023/07/02 22:32:26;;;;;;;10.68;4.63;;;;;;;16.59;50.01;100504.41;15749323;28;20052;-56
2023/07/02 22:40:05;;;;;;;13.18;5.22;;;;;;;16.62;50.19;100502.25;15746436;28;20048;-58
2023/07/02 22:47:39;;;;;;;12.95;5.78;;;;;;;16.52;51.10;100506.50;15775449;28;20050;-57
2023/07/02 22:55:14;;;;;;;10.90;5.03;;;;;;;16.37;51.12;100494.66;15824750;22;20071;-53
2023/07/02 23:02:47;;;;;;;11.52;5.18;;;;;;;16.14;52.07;100477.66;15800495;28;20037;-48
2023/07/02 23:10:22;;;;;;;75.65;10.13;;;;;;;15.97;52.97;100507.50;15802796;28;20533;-51
2023/07/02 23:18:01;;;;;;;79.95;8.80;;;;;;;15.86;52.66;100485.97;15787410;28;20044;-53
2023/07/02 23:25:36;;;;;;;128.13;21.13;;;;;;;15.92;52.89;100490.38;15802084;28;20048;-49
2023/07/02 23:33:10;;;;;;;11.57;5.53;;;;;;;15.90;52.00;100462.72;15783701;28;20048;-50
2023/07/02 23:40:45;;;;;;;12.70;6.13;;;;;;;15.74;53.59;100478.78;15804233;28;20044;-51
2023/07/02 23:48:18;;;;;;;10.82;5.93;;;;;;;15.57;53.78;100472.56;15797484;28;20040;-51
2023/07/02 23:55:52;;;;;;;61.80;8.83;;;;;;;15.34;55.09;100487.13;15800137;28;20040;-51
